sensor_id;sensor_type;location;lat;lon;timestamp;temperature;humidity
75471;HTU21D;64051;46.320;48.028;2023-04-28T00:01:17;13.64;60.80
75471;HTU21D;64051;46.320;48.028;2023-04-28T00:03:43;13.66;60.83
75471;HTU21D;64051;46.320;48.028;2023-04-28T00:06:13;13.66;60.85
75471;HTU21D;64051;46.320;48.028;2023-04-28T00:08:39;13.69;60.92
75471;HTU21D;64051;46.320;48.028;2023-04-28T00:11:11;13.73;60.97
75471;HTU21D;64051;46.320;48.028;2023-04-28T00:13:38;13.74;60.93
75471;HTU21D;64051;46.320;48.028;2023-04-28T00:16:04;13.76;60.96
75471;HTU21D;64051;46.320;48.028;2023-04-28T00:18:30;13.78;60.98
75471;HTU21D;64051;46.320;48.028;2023-04-28T00:20:57;13.80;61.01
75471;HTU21D;64051;46.320;48.028;2023-04-28T00:23:23;13.82;61.03
75471;HTU21D;64051;46.320;48.028;2023-04-28T00:25:50;13.85;61.02
75471;HTU21D;64051;46.320;48.028;2023-04-28T00:28:17;13.89;61.03
75471;HTU21D;64051;46.320;48.028;2023-04-28T00:30:43;13.93;61.11
75471;HTU21D;64051;46.320;48.028;2023-04-28T00:33:08;13.99;61.22
75471;HTU21D;64051;46.320;48.028;2023-04-28T00:35:35;14.05;61.11
75471;HTU21D;64051;46.320;48.028;2023-04-28T00:38:00;14.11;61.05
75471;HTU21D;64051;46.320;48.028;2023-04-28T00:40:37;14.14;61.11
75471;HTU21D;64051;46.320;48.028;2023-04-28T00:43:04;14.15;60.98
75471;HTU21D;64051;46.320;48.028;2023-04-28T00:45:30;14.17;60.99
75471;HTU21D;64051;46.320;48.028;2023-04-28T00:48:15;14.17;60.89
75471;HTU21D;64051;46.320;48.028;2023-04-28T00:50:45;14.15;60.94
75471;HTU21D;64051;46.320;48.028;2023-04-28T00:53:49;14.13;61.06
75471;HTU21D;64051;46.320;48.028;2023-04-28T00:56:15;14.12;61.06
75471;HTU21D;64051;46.320;48.028;2023-04-28T00:58:42;14.15;61.24
75471;HTU21D;64051;46.320;48.028;2023-04-28T01:01:09;14.25;61.36
75471;HTU21D;64051;46.320;48.028;2023-04-28T01:06:24;14.49;61.24
75471;HTU21D;64051;46.320;48.028;2023-04-28T01:08:52;14.57;61.30
75471;HTU21D;64051;46.320;48.028;2023-04-28T01:11:19;14.65;61.22
75471;HTU21D;64051;46.320;48.028;2023-04-28T01:14:03;14.68;61.12
75471;HTU21D;64051;46.320;48.028;2023-04-28T01:16:34;14.71;61.24
75471;HTU21D;64051;46.320;48.028;2023-04-28T01:19:02;14.73;61.28
75471;HTU21D;64051;46.320;48.028;2023-04-28T01:21:32;14.80;61.32
75471;HTU21D;64051;46.320;48.028;2023-04-28T01:24:06;14.84;61.33
75471;HTU21D;64051;46.320;48.028;2023-04-28T01:29:17;14.91;61.41
75471;HTU21D;64051;46.320;48.028;2023-04-28T01:31:43;14.94;61.41
75471;HTU21D;64051;46.320;48.028;2023-04-28T01:37:12;14.99;61.37
75471;HTU21D;64051;46.320;48.028;2023-04-28T01:39:56;15.02;61.41
75471;HTU21D;64051;46.320;48.028;2023-04-28T01:42:23;15.04;61.40
75471;HTU21D;64051;46.320;48.028;2023-04-28T01:44:49;15.07;61.36
75471;HTU21D;64051;46.320;48.028;2023-04-28T01:47:15;15.09;61.32
75471;HTU21D;64051;46.320;48.028;2023-04-28T01:49:41;15.07;61.34
75471;HTU21D;64051;46.320;48.028;2023-04-28T01:52:26;15.09;61.38
75471;HTU21D;64051;46.320;48.028;2023-04-28T01:55:10;15.09;61.37
75471;HTU21D;64051;46.320;48.028;2023-04-28T01:57:37;15.09;61.38
75471;HTU21D;64051;46.320;48.028;2023-04-28T02:00:04;15.09;61.38
75471;HTU21D;64051;46.320;48.028;2023-04-28T02:02:50;15.10;61.41
75471;HTU21D;64051;46.320;48.028;2023-04-28T02:05:16;15.11;61.45
75471;HTU21D;64051;46.320;48.028;2023-04-28T02:07:42;15.14;61.50
75471;HTU21D;64051;46.320;48.028;2023-04-28T02:10:08;15.21;61.50
75471;HTU21D;64051;46.320;48.028;2023-04-28T02:12:34;15.26;61.43
75471;HTU21D;64051;46.320;48.028;2023-04-28T02:15:00;15.29;61.38
75471;HTU21D;64051;46.320;48.028;2023-04-28T02:17:29;15.34;61.44
75471;HTU21D;64051;46.320;48.028;2023-04-28T02:20:50;15.44;61.47
75471;HTU21D;64051;46.320;48.028;2023-04-28T02:26:38;15.59;61.40
75471;HTU21D;64051;46.320;48.028;2023-04-28T02:29:22;15.68;61.19
75471;HTU21D;64051;46.320;48.028;2023-04-28T02:31:49;15.78;61.09
75471;HTU21D;64051;46.320;48.028;2023-04-28T02:34:17;15.87;60.99
75471;HTU21D;64051;46.320;48.028;2023-04-28T02:36:43;15.97;60.92
75471;HTU21D;64051;46.320;48.028;2023-04-28T02:42:02;16.26;60.77
75471;HTU21D;64051;46.320;48.028;2023-04-28T02:44:30;16.40;60.72
75471;HTU21D;64051;46.320;48.028;2023-04-28T02:46:55;16.55;60.60
75471;HTU21D;64051;46.320;48.028;2023-04-28T02:49:24;16.69;60.41
75471;HTU21D;64051;46.320;48.028;2023-04-28T02:51:50;16.82;60.25
75471;HTU21D;64051;46.320;48.028;2023-04-28T02:54:16;16.94;60.06
75471;HTU21D;64051;46.320;48.028;2023-04-28T02:56:55;17.08;59.86
75471;HTU21D;64051;46.320;48.028;2023-04-28T02:59:22;17.19;59.71
75471;HTU21D;64051;46.320;48.028;2023-04-28T03:01:49;17.28;59.70
75471;HTU21D;64051;46.320;48.028;2023-04-28T03:04:16;17.38;59.84
75471;HTU21D;64051;46.320;48.028;2023-04-28T03:06:42;17.54;59.98
75471;HTU21D;64051;46.320;48.028;2023-04-28T03:09:09;17.74;60.09
75471;HTU21D;64051;46.320;48.028;2023-04-28T03:11:35;17.92;60.16
75471;HTU21D;64051;46.320;48.028;2023-04-28T03:14:02;18.11;60.11
75471;HTU21D;64051;46.320;48.028;2023-04-28T03:16:28;18.25;60.03
75471;HTU21D;64051;46.320;48.028;2023-04-28T03:18:54;18.42;59.96
75471;HTU21D;64051;46.320;48.028;2023-04-28T03:21:20;18.58;59.79
75471;HTU21D;64051;46.320;48.028;2023-04-28T03:23:46;18.66;59.45
75471;HTU21D;64051;46.320;48.028;2023-04-28T03:26:12;18.69;59.12
75471;HTU21D;64051;46.320;48.028;2023-04-28T03:28:38;18.69;58.96
75471;HTU21D;64051;46.320;48.028;2023-04-28T03:31:04;18.70;58.99
75471;HTU21D;64051;46.320;48.028;2023-04-28T03:33:30;18.72;59.04
75471;HTU21D;64051;46.320;48.028;2023-04-28T03:35:58;18.74;59.05
75471;HTU21D;64051;46.320;48.028;2023-04-28T03:38:24;18.79;58.99
75471;HTU21D;64051;46.320;48.028;2023-04-28T03:40:50;18.82;58.89
75471;HTU21D;64051;46.320;48.028;2023-04-28T03:43:36;18.86;58.78
75471;HTU21D;64051;46.320;48.028;2023-04-28T03:46:12;18.89;58.61
75471;HTU21D;64051;46.320;48.028;2023-04-28T03:48:38;18.92;58.55
75471;HTU21D;64051;46.320;48.028;2023-04-28T03:51:04;18.93;58.48
75471;HTU21D;64051;46.320;48.028;2023-04-28T03:53:30;18.96;58.42
75471;HTU21D;64051;46.320;48.028;2023-04-28T03:55:56;18.95;58.33
75471;HTU21D;64051;46.320;48.028;2023-04-28T03:58:23;18.92;58.31
75471;HTU21D;64051;46.320;48.028;2023-04-28T04:00:49;18.93;58.40
75471;HTU21D;64051;46.320;48.028;2023-04-28T04:03:15;18.97;58.48
75471;HTU21D;64051;46.320;48.028;2023-04-28T04:05:45;19.07;58.42
75471;HTU21D;64051;46.320;48.028;2023-04-28T04:08:30;19.15;58.29
75471;HTU21D;64051;46.320;48.028;2023-04-28T04:10:59;19.20;58.25
75471;HTU21D;64051;46.320;48.028;2023-04-28T04:13:24;19.28;58.20
75471;HTU21D;64051;46.320;48.028;2023-04-28T04:15:53;19.33;58.13
75471;HTU21D;64051;46.320;48.028;2023-04-28T04:18:22;19.41;58.06
75471;HTU21D;64051;46.320;48.028;2023-04-28T04:21:07;19.46;57.97
75471;HTU21D;64051;46.320;48.028;2023-04-28T04:23:33;19.52;57.94
75471;HTU21D;64051;46.320;48.028;2023-04-28T04:26:00;19.56;57.95
75471;HTU21D;64051;46.320;48.028;2023-04-28T04:28:26;19.67;57.93
75471;HTU21D;64051;46.320;48.028;2023-04-28T04:30:52;19.81;57.87
75471;HTU21D;64051;46.320;48.028;2023-04-28T04:33:18;19.96;57.76
75471;HTU21D;64051;46.320;48.028;2023-04-28T04:35:47;20.13;57.60
75471;HTU21D;64051;46.320;48.028;2023-04-28T04:38:13;20.27;57.41
75471;HTU21D;64051;46.320;48.028;2023-04-28T04:40:40;20.39;57.23
75471;HTU21D;64051;46.320;48.028;2023-04-28T04:43:05;20.51;57.09
75471;HTU21D;64051;46.320;48.028;2023-04-28T04:45:43;20.61;56.97
75471;HTU21D;64051;46.320;48.028;2023-04-28T04:48:11;20.74;56.88
75471;HTU21D;64051;46.320;48.028;2023-04-28T04:50:37;20.88;56.71
75471;HTU21D;64051;46.320;48.028;2023-04-28T04:53:04;21.00;56.60
75471;HTU21D;64051;46.320;48.028;2023-04-28T04:55:32;21.17;56.44
75471;HTU21D;64051;46.320;48.028;2023-04-28T04:58:03;21.35;56.30
75471;HTU21D;64051;46.320;48.028;2023-04-28T05:00:54;21.58;56.08
75471;HTU21D;64051;46.320;48.028;2023-04-28T05:03:20;21.78;55.87
75471;HTU21D;64051;46.320;48.028;2023-04-28T05:05:49;21.97;55.58
75471;HTU21D;64051;46.320;48.028;2023-04-28T05:08:41;22.16;55.24
75471;HTU21D;64051;46.320;48.028;2023-04-28T05:11:07;22.27;54.93
75471;HTU21D;64051;46.320;48.028;2023-04-28T05:13:35;22.38;54.68
75471;HTU21D;64051;46.320;48.028;2023-04-28T05:16:03;22.49;54.39
75471;HTU21D;64051;46.320;48.028;2023-04-28T05:18:29;22.60;54.17
75471;HTU21D;64051;46.320;48.028;2023-04-28T05:20:55;22.70;53.94
75471;HTU21D;64051;46.320;48.028;2023-04-28T05:23:21;22.80;53.72
75471;HTU21D;64051;46.320;48.028;2023-04-28T05:25:47;22.90;53.33
75471;HTU21D;64051;46.320;48.028;2023-04-28T05:28:13;22.97;53.08
75471;HTU21D;64051;46.320;48.028;2023-04-28T05:30:41;23.08;52.98
75471;HTU21D;64051;46.320;48.028;2023-04-28T05:33:08;23.16;52.76
75471;HTU21D;64051;46.320;48.028;2023-04-28T05:35:33;23.26;52.54
75471;HTU21D;64051;46.320;48.028;2023-04-28T05:38:01;23.35;52.25
75471;HTU21D;64051;46.320;48.028;2023-04-28T05:40:27;23.39;51.88
75471;HTU21D;64051;46.320;48.028;2023-04-28T05:42:54;23.41;51.73
75471;HTU21D;64051;46.320;48.028;2023-04-28T05:45:20;23.49;51.64
75471;HTU21D;64051;46.320;48.028;2023-04-28T05:47:49;23.53;51.40
75471;HTU21D;64051;46.320;48.028;2023-04-28T05:50:15;23.57;51.20
75471;HTU21D;64051;46.320;48.028;2023-04-28T05:52:42;23.65;51.11
75471;HTU21D;64051;46.320;48.028;2023-04-28T05:55:08;23.72;50.92
75471;HTU21D;64051;46.320;48.028;2023-04-28T05:57:38;23.81;50.73
75471;HTU21D;64051;46.320;48.028;2023-04-28T06:00:05;23.89;50.67
75471;HTU21D;64051;46.320;48.028;2023-04-28T06:02:41;24.00;50.50
75471;HTU21D;64051;46.320;48.028;2023-04-28T06:05:08;24.12;50.30
75471;HTU21D;64051;46.320;48.028;2023-04-28T06:07:34;24.19;50.11
75471;HTU21D;64051;46.320;48.028;2023-04-28T06:10:00;24.28;50.03
75471;HTU21D;64051;46.320;48.028;2023-04-28T06:12:26;24.36;49.86
75471;HTU21D;64051;46.320;48.028;2023-04-28T06:14:55;24.44;49.66
75471;HTU21D;64051;46.320;48.028;2023-04-28T06:17:21;24.48;49.62
75471;HTU21D;64051;46.320;48.028;2023-04-28T06:19:47;24.57;49.50
75471;HTU21D;64051;46.320;48.028;2023-04-28T06:22:15;24.62;49.37
75471;HTU21D;64051;46.320;48.028;2023-04-28T06:24:41;24.70;49.23
75471;HTU21D;64051;46.320;48.028;2023-04-28T06:27:10;24.76;49.08
75471;HTU21D;64051;46.320;48.028;2023-04-28T06:29:43;24.83;49.04
75471;HTU21D;64051;46.320;48.028;2023-04-28T06:32:09;24.92;48.99
75471;HTU21D;64051;46.320;48.028;2023-04-28T06:34:36;25.00;48.79
75471;HTU21D;64051;46.320;48.028;2023-04-28T06:37:02;25.04;48.69
75471;HTU21D;64051;46.320;48.028;2023-04-28T06:39:28;25.09;48.62
75471;HTU21D;64051;46.320;48.028;2023-04-28T06:42:00;25.16;48.52
75471;HTU21D;64051;46.320;48.028;2023-04-28T06:44:28;25.21;48.37
75471;HTU21D;64051;46.320;48.028;2023-04-28T06:46:54;25.25;48.32
75471;HTU21D;64051;46.320;48.028;2023-04-28T06:49:20;25.30;48.18
75471;HTU21D;64051;46.320;48.028;2023-04-28T06:51:46;25.36;48.06
75471;HTU21D;64051;46.320;48.028;2023-04-28T06:54:12;25.40;48.02
75471;HTU21D;64051;46.320;48.028;2023-04-28T06:56:42;25.49;48.01
75471;HTU21D;64051;46.320;48.028;2023-04-28T06:59:08;25.61;47.83
75471;HTU21D;64051;46.320;48.028;2023-04-28T07:01:35;25.65;47.67
75471;HTU21D;64051;46.320;48.028;2023-04-28T07:04:01;25.69;47.58
75471;HTU21D;64051;46.320;48.028;2023-04-28T07:06:27;25.77;47.59
75471;HTU21D;64051;46.320;48.028;2023-04-28T07:09:00;25.86;47.24
75471;HTU21D;64051;46.320;48.028;2023-04-28T07:14:10;25.91;47.40
75471;HTU21D;64051;46.320;48.028;2023-04-28T07:16:39;25.97;47.25
75471;HTU21D;64051;46.320;48.028;2023-04-28T07:19:05;26.05;47.15
75471;HTU21D;64051;46.320;48.028;2023-04-28T07:21:36;26.11;46.86
75471;HTU21D;64051;46.320;48.028;2023-04-28T07:24:05;26.16;46.71
75471;HTU21D;64051;46.320;48.028;2023-04-28T07:26:34;26.18;46.63
75471;HTU21D;64051;46.320;48.028;2023-04-28T07:29:00;26.23;46.47
75471;HTU21D;64051;46.320;48.028;2023-04-28T07:31:29;26.28;46.26
75471;HTU21D;64051;46.320;48.028;2023-04-28T07:33:55;26.33;46.16
75471;HTU21D;64051;46.320;48.028;2023-04-28T07:36:21;26.39;45.98
75471;HTU21D;64051;46.320;48.028;2023-04-28T07:38:47;26.46;45.88
75471;HTU21D;64051;46.320;48.028;2023-04-28T07:41:13;26.53;45.78
75471;HTU21D;64051;46.320;48.028;2023-04-28T07:43:39;26.61;45.70
75471;HTU21D;64051;46.320;48.028;2023-04-28T07:46:06;26.72;45.55
75471;HTU21D;64051;46.320;48.028;2023-04-28T07:48:33;26.82;45.35
75471;HTU21D;64051;46.320;48.028;2023-04-28T07:51:00;26.91;45.32
75471;HTU21D;64051;46.320;48.028;2023-04-28T07:53:26;27.00;45.21
75471;HTU21D;64051;46.320;48.028;2023-04-28T07:55:55;27.11;45.11
75471;HTU21D;64051;46.320;48.028;2023-04-28T07:58:24;27.19;44.77
75471;HTU21D;64051;46.320;48.028;2023-04-28T08:00:50;27.23;44.74
75471;HTU21D;64051;46.320;48.028;2023-04-28T08:03:19;27.32;44.77
75471;HTU21D;64051;46.320;48.028;2023-04-28T08:05:45;27.40;44.58
75471;HTU21D;64051;46.320;48.028;2023-04-28T08:08:11;27.41;44.43
75471;HTU21D;64051;46.320;48.028;2023-04-28T08:10:37;27.39;44.45
75471;HTU21D;64051;46.320;48.028;2023-04-28T08:13:09;27.42;44.38
75471;HTU21D;64051;46.320;48.028;2023-04-28T08:15:35;27.45;44.13
75471;HTU21D;64051;46.320;48.028;2023-04-28T08:18:01;27.45;44.08
75471;HTU21D;64051;46.320;48.028;2023-04-28T08:20:27;27.47;44.03
75471;HTU21D;64051;46.320;48.028;2023-04-28T08:22:54;27.49;43.96
75471;HTU21D;64051;46.320;48.028;2023-04-28T08:25:32;27.56;43.96
75471;HTU21D;64051;46.320;48.028;2023-04-28T08:27:58;27.65;43.87
75471;HTU21D;64051;46.320;48.028;2023-04-28T08:30:24;27.69;43.71
75471;HTU21D;64051;46.320;48.028;2023-04-28T08:32:50;27.70;43.62
75471;HTU21D;64051;46.320;48.028;2023-04-28T08:35:16;27.73;43.56
75471;HTU21D;64051;46.320;48.028;2023-04-28T08:37:43;27.70;43.45
75471;HTU21D;64051;46.320;48.028;2023-04-28T08:40:10;27.71;43.54
75471;HTU21D;64051;46.320;48.028;2023-04-28T08:42:36;27.75;43.44
75471;HTU21D;64051;46.320;48.028;2023-04-28T08:45:05;27.79;43.38
75471;HTU21D;64051;46.320;48.028;2023-04-28T08:47:44;27.81;43.20
75471;HTU21D;64051;46.320;48.028;2023-04-28T08:50:14;27.78;43.10
75471;HTU21D;64051;46.320;48.028;2023-04-28T08:52:43;27.74;43.12
75471;HTU21D;64051;46.320;48.028;2023-04-28T08:55:12;27.71;42.96
75471;HTU21D;64051;46.320;48.028;2023-04-28T08:57:48;27.67;42.75
75471;HTU21D;64051;46.320;48.028;2023-04-28T09:00:16;27.61;42.93
75471;HTU21D;64051;46.320;48.028;2023-04-28T09:02:49;27.57;42.86
75471;HTU21D;64051;46.320;48.028;2023-04-28T09:05:15;27.57;42.85
75471;HTU21D;64051;46.320;48.028;2023-04-28T09:07:47;27.58;42.30
75471;HTU21D;64051;46.320;48.028;2023-04-28T09:10:24;27.55;41.97
75471;HTU21D;64051;46.320;48.028;2023-04-28T09:12:53;27.57;42.72
75471;HTU21D;64051;46.320;48.028;2023-04-28T09:17:52;27.61;42.58
75471;HTU21D;64051;46.320;48.028;2023-04-28T09:20:22;27.63;42.36
75471;HTU21D;64051;46.320;48.028;2023-04-28T09:22:53;27.63;42.34
75471;HTU21D;64051;46.320;48.028;2023-04-28T09:25:19;27.66;42.42
75471;HTU21D;64051;46.320;48.028;2023-04-28T09:27:50;27.73;42.43
75471;HTU21D;64051;46.320;48.028;2023-04-28T09:30:19;27.82;42.22
75471;HTU21D;64051;46.320;48.028;2023-04-28T09:33:05;27.85;42.07
75471;HTU21D;64051;46.320;48.028;2023-04-28T09:35:39;27.94;40.92
75471;HTU21D;64051;46.320;48.028;2023-04-28T09:38:12;27.94;42.00
75471;HTU21D;64051;46.320;48.028;2023-04-28T09:43:33;27.89;41.68
75471;HTU21D;64051;46.320;48.028;2023-04-28T09:46:08;27.85;41.92
75471;HTU21D;64051;46.320;48.028;2023-04-28T09:48:37;27.84;41.83
75471;HTU21D;64051;46.320;48.028;2023-04-28T09:51:07;27.83;41.87
75471;HTU21D;64051;46.320;48.028;2023-04-28T09:53:33;27.84;41.91
75471;HTU21D;64051;46.320;48.028;2023-04-28T09:56:03;27.91;41.88
75471;HTU21D;64051;46.320;48.028;2023-04-28T09:58:33;28.00;41.68
75471;HTU21D;64051;46.320;48.028;2023-04-28T10:01:04;28.04;41.53
75471;HTU21D;64051;46.320;48.028;2023-04-28T10:03:30;28.03;41.46
75471;HTU21D;64051;46.320;48.028;2023-04-28T10:05:57;27.99;41.34
75471;HTU21D;64051;46.320;48.028;2023-04-28T10:08:25;27.94;41.29
75471;HTU21D;64051;46.320;48.028;2023-04-28T10:10:55;27.91;41.26
75471;HTU21D;64051;46.320;48.028;2023-04-28T10:13:24;27.87;41.18
75471;HTU21D;64051;46.320;48.028;2023-04-28T10:15:50;27.81;41.09
75471;HTU21D;64051;46.320;48.028;2023-04-28T10:18:22;27.78;41.10
75471;HTU21D;64051;46.320;48.028;2023-04-28T10:20:54;27.78;41.13
75471;HTU21D;64051;46.320;48.028;2023-04-28T10:24:24;27.76;40.88
75471;HTU21D;64051;46.320;48.028;2023-04-28T10:29:32;27.79;41.33
75471;HTU21D;64051;46.320;48.028;2023-04-28T10:32:31;27.83;41.25
75471;HTU21D;64051;46.320;48.028;2023-04-28T10:38:18;27.91;41.18
75471;HTU21D;64051;46.320;48.028;2023-04-28T10:40:54;27.84;41.19
75471;HTU21D;64051;46.320;48.028;2023-04-28T10:56:25;27.80;40.88
75471;HTU21D;64051;46.320;48.028;2023-04-28T10:58:59;27.81;41.08
75471;HTU21D;64051;46.320;48.028;2023-04-28T11:01:30;27.85;41.07
75471;HTU21D;64051;46.320;48.028;2023-04-28T11:04:06;27.90;41.00
75471;HTU21D;64051;46.320;48.028;2023-04-28T11:06:43;27.94;41.03
75471;HTU21D;64051;46.320;48.028;2023-04-28T11:12:03;27.93;40.71
75471;HTU21D;64051;46.320;48.028;2023-04-28T11:14:41;27.86;40.97
75471;HTU21D;64051;46.320;48.028;2023-04-28T11:17:10;27.84;40.96
75471;HTU21D;64051;46.320;48.028;2023-04-28T11:19:45;27.84;40.90
75471;HTU21D;64051;46.320;48.028;2023-04-28T11:22:21;27.83;40.77
75471;HTU21D;64051;46.320;48.028;2023-04-28T11:25:01;27.84;40.73
75471;HTU21D;64051;46.320;48.028;2023-04-28T11:27:33;27.83;40.72
75471;HTU21D;64051;46.320;48.028;2023-04-28T11:29:59;27.82;40.78
75471;HTU21D;64051;46.320;48.028;2023-04-28T11:32:33;27.84;40.65
75471;HTU21D;64051;46.320;48.028;2023-04-28T11:35:00;27.87;40.71
75471;HTU21D;64051;46.320;48.028;2023-04-28T11:37:26;27.88;40.64
75471;HTU21D;64051;46.320;48.028;2023-04-28T11:39:52;27.88;40.61
75471;HTU21D;64051;46.320;48.028;2023-04-28T11:42:21;27.89;40.68
75471;HTU21D;64051;46.320;48.028;2023-04-28T11:44:54;27.88;40.56
75471;HTU21D;64051;46.320;48.028;2023-04-28T11:47:32;27.85;40.46
75471;HTU21D;64051;46.320;48.028;2023-04-28T11:50:01;27.83;40.68
75471;HTU21D;64051;46.320;48.028;2023-04-28T11:52:27;27.82;40.62
75471;HTU21D;64051;46.320;48.028;2023-04-28T11:55:02;27.82;40.71
75471;HTU21D;64051;46.320;48.028;2023-04-28T11:57:29;27.84;40.72
75471;HTU21D;64051;46.320;48.028;2023-04-28T12:00:14;27.88;40.39
75471;HTU21D;64051;46.320;48.028;2023-04-28T12:02:46;27.88;40.65
75471;HTU21D;64051;46.320;48.028;2023-04-28T12:05:12;27.83;40.63
75471;HTU21D;64051;46.320;48.028;2023-04-28T12:07:43;27.78;40.65
75471;HTU21D;64051;46.320;48.028;2023-04-28T12:10:16;27.78;40.62
75471;HTU21D;64051;46.320;48.028;2023-04-28T12:12:43;27.76;40.67
75471;HTU21D;64051;46.320;48.028;2023-04-28T12:15:09;27.71;40.70
75471;HTU21D;64051;46.320;48.028;2023-04-28T12:17:40;27.68;40.78
75471;HTU21D;64051;46.320;48.028;2023-04-28T12:20:35;27.67;40.72
75471;HTU21D;64051;46.320;48.028;2023-04-28T12:23:04;27.65;40.90
75471;HTU21D;64051;46.320;48.028;2023-04-28T12:25:43;27.71;40.59
75471;HTU21D;64051;46.320;48.028;2023-04-28T12:28:12;27.71;40.87
75471;HTU21D;64051;46.320;48.028;2023-04-28T12:30:38;27.69;40.81
75471;HTU21D;64051;46.320;48.028;2023-04-28T12:33:25;27.65;40.51
75471;HTU21D;64051;46.320;48.028;2023-04-28T12:35:52;27.58;40.80
75471;HTU21D;64051;46.320;48.028;2023-04-28T12:38:24;27.53;40.78
75471;HTU21D;64051;46.320;48.028;2023-04-28T12:40:51;27.51;40.97
75471;HTU21D;64051;46.320;48.028;2023-04-28T12:43:17;27.53;41.02
75471;HTU21D;64051;46.320;48.028;2023-04-28T12:45:43;27.55;40.98
75471;HTU21D;64051;46.320;48.028;2023-04-28T12:48:15;27.51;40.88
75471;HTU21D;64051;46.320;48.028;2023-04-28T12:50:47;27.47;41.07
75471;HTU21D;64051;46.320;48.028;2023-04-28T12:53:12;27.45;41.10
75471;HTU21D;64051;46.320;48.028;2023-04-28T12:55:41;27.40;41.10
75471;HTU21D;64051;46.320;48.028;2023-04-28T12:58:07;27.34;41.14
75471;HTU21D;64051;46.320;48.028;2023-04-28T13:00:33;27.29;41.26
75471;HTU21D;64051;46.320;48.028;2023-04-28T13:03:02;27.25;41.32
75471;HTU21D;64051;46.320;48.028;2023-04-28T13:05:31;27.22;41.42
75471;HTU21D;64051;46.320;48.028;2023-04-28T13:08:00;27.21;41.46
75471;HTU21D;64051;46.320;48.028;2023-04-28T13:10:26;27.17;41.45
75471;HTU21D;64051;46.320;48.028;2023-04-28T13:12:53;27.14;41.50
75471;HTU21D;64051;46.320;48.028;2023-04-28T13:15:19;27.11;41.51
75471;HTU21D;64051;46.320;48.028;2023-04-28T13:17:47;27.07;41.58
75471;HTU21D;64051;46.320;48.028;2023-04-28T13:20:16;27.04;41.52
75471;HTU21D;64051;46.320;48.028;2023-04-28T13:22:44;26.97;41.56
75471;HTU21D;64051;46.320;48.028;2023-04-28T13:25:13;26.93;41.62
75471;HTU21D;64051;46.320;48.028;2023-04-28T13:27:39;26.85;41.75
75471;HTU21D;64051;46.320;48.028;2023-04-28T13:30:06;26.81;41.80
75471;HTU21D;64051;46.320;48.028;2023-04-28T13:32:39;26.77;41.87
75471;HTU21D;64051;46.320;48.028;2023-04-28T13:35:05;26.70;41.90
75471;HTU21D;64051;46.320;48.028;2023-04-28T13:37:31;26.65;41.97
75471;HTU21D;64051;46.320;48.028;2023-04-28T13:39:57;26.61;42.03
75471;HTU21D;64051;46.320;48.028;2023-04-28T13:42:23;26.53;42.07
75471;HTU21D;64051;46.320;48.028;2023-04-28T13:44:50;26.47;42.09
75471;HTU21D;64051;46.320;48.028;2023-04-28T13:47:19;26.38;42.03
75471;HTU21D;64051;46.320;48.028;2023-04-28T13:49:54;26.31;42.13
75471;HTU21D;64051;46.320;48.028;2023-04-28T13:52:26;26.24;42.27
75471;HTU21D;64051;46.320;48.028;2023-04-28T13:54:51;26.19;42.33
75471;HTU21D;64051;46.320;48.028;2023-04-28T13:57:17;26.12;42.46
75471;HTU21D;64051;46.320;48.028;2023-04-28T13:59:46;26.10;42.55
75471;HTU21D;64051;46.320;48.028;2023-04-28T14:02:15;26.07;42.52
75471;HTU21D;64051;46.320;48.028;2023-04-28T14:04:41;26.05;42.55
75471;HTU21D;64051;46.320;48.028;2023-04-28T14:07:13;26.01;42.53
75471;HTU21D;64051;46.320;48.028;2023-04-28T14:09:42;25.91;42.52
75471;HTU21D;64051;46.320;48.028;2023-04-28T14:12:08;25.83;42.55
75471;HTU21D;64051;46.320;48.028;2023-04-28T14:14:46;25.77;42.59
75471;HTU21D;64051;46.320;48.028;2023-04-28T14:17:13;25.68;42.69
75471;HTU21D;64051;46.320;48.028;2023-04-28T14:19:39;25.59;42.72
75471;HTU21D;64051;46.320;48.028;2023-04-28T14:22:08;25.53;42.80
75471;HTU21D;64051;46.320;48.028;2023-04-28T14:24:37;25.45;42.95
75471;HTU21D;64051;46.320;48.028;2023-04-28T14:27:05;25.37;43.03
75471;HTU21D;64051;46.320;48.028;2023-04-28T14:29:35;25.32;43.05
75471;HTU21D;64051;46.320;48.028;2023-04-28T14:32:01;25.25;43.16
75471;HTU21D;64051;46.320;48.028;2023-04-28T14:34:35;25.21;43.19
75471;HTU21D;64051;46.320;48.028;2023-04-28T14:37:04;25.13;43.27
75471;HTU21D;64051;46.320;48.028;2023-04-28T14:39:36;25.06;43.34
75471;HTU21D;64051;46.320;48.028;2023-04-28T14:42:04;25.00;43.39
75471;HTU21D;64051;46.320;48.028;2023-04-28T14:44:30;24.91;43.45
75471;HTU21D;64051;46.320;48.028;2023-04-28T14:47:00;24.84;43.51
75471;HTU21D;64051;46.320;48.028;2023-04-28T14:49:29;24.73;43.55
75471;HTU21D;64051;46.320;48.028;2023-04-28T14:51:59;24.61;43.66
75471;HTU21D;64051;46.320;48.028;2023-04-28T14:54:25;24.50;43.80
75471;HTU21D;64051;46.320;48.028;2023-04-28T14:56:51;24.41;43.91
75471;HTU21D;64051;46.320;48.028;2023-04-28T14:59:17;24.33;44.03
75471;HTU21D;64051;46.320;48.028;2023-04-28T15:01:46;24.25;44.14
75471;HTU21D;64051;46.320;48.028;2023-04-28T15:04:15;24.13;44.29
75471;HTU21D;64051;46.320;48.028;2023-04-28T15:06:49;24.06;44.47
75471;HTU21D;64051;46.320;48.028;2023-04-28T15:09:16;23.99;44.60
75471;HTU21D;64051;46.320;48.028;2023-04-28T15:11:51;23.92;44.76
75471;HTU21D;64051;46.320;48.028;2023-04-28T15:14:26;23.87;44.89
75471;HTU21D;64051;46.320;48.028;2023-04-28T15:16:58;23.81;45.04
75471;HTU21D;64051;46.320;48.028;2023-04-28T15:19:24;23.74;45.16
75471;HTU21D;64051;46.320;48.028;2023-04-28T15:21:50;23.67;45.28
75471;HTU21D;64051;46.320;48.028;2023-04-28T15:24:18;23.59;45.46
75471;HTU21D;64051;46.320;48.028;2023-04-28T15:26:46;23.52;45.59
75471;HTU21D;64051;46.320;48.028;2023-04-28T15:29:12;23.44;45.74
75471;HTU21D;64051;46.320;48.028;2023-04-28T15:31:50;23.31;45.91
75471;HTU21D;64051;46.320;48.028;2023-04-28T15:34:19;23.20;46.12
75471;HTU21D;64051;46.320;48.028;2023-04-28T15:36:45;23.11;46.31
75471;HTU21D;64051;46.320;48.028;2023-04-28T15:39:20;22.99;46.47
75471;HTU21D;64051;46.320;48.028;2023-04-28T15:41:53;22.92;46.70
75471;HTU21D;64051;46.320;48.028;2023-04-28T15:44:25;22.82;46.82
75471;HTU21D;64051;46.320;48.028;2023-04-28T15:46:51;22.71;46.96
75471;HTU21D;64051;46.320;48.028;2023-04-28T15:49:17;22.63;47.13
75471;HTU21D;64051;46.320;48.028;2023-04-28T15:51:43;22.51;47.32
75471;HTU21D;64051;46.320;48.028;2023-04-28T15:54:10;22.39;47.50
75471;HTU21D;64051;46.320;48.028;2023-04-28T15:56:38;22.28;47.69
75471;HTU21D;64051;46.320;48.028;2023-04-28T15:59:10;22.18;47.96
75471;HTU21D;64051;46.320;48.028;2023-04-28T16:01:40;22.09;48.08